N417BA CYHZ-CYDF
Flight info
| Callsign | N417BA |
|---|---|
| Flight time | N/A |
| Altitude | 25000 |
| Route | KATLO DCT JIGGS |
| Aircraft | LJ35/M-SGHRWXY/SB1 |
Departure
| Time | 2025-12-30 21:55 |
|---|---|
| Airport | Halifax / Stanfield International Airport (CYHZ) |
Arrival
| Time | N/A |
|---|---|
| Airport | Deer Lake Airport (CYDF) |
| Time | Latitude | Longitude | Altitude | Speed | Heading |
|---|---|---|---|---|---|
| 2025-12-30 21:36 | 44.88367 | -63.51473 | 449 ft | 0 kts | 304° |
| 2025-12-30 21:48 | 44.88354 | -63.51446 | 449 ft | 2 kts | 304° |
| 2025-12-30 21:48 | 44.88345 | -63.51429 | 449 ft | 2 kts | 304° |
| 2025-12-30 21:49 | 44.88328 | -63.51394 | 449 ft | 2 kts | 304° |
| 2025-12-30 21:49 | 44.88311 | -63.51359 | 449 ft | 2 kts | 304° |
| 2025-12-30 21:50 | 44.88302 | -63.51342 | 449 ft | 2 kts | 304° |
| 2025-12-30 21:50 | 44.88305 | -63.51346 | 449 ft | 0 kts | 306° |
| 2025-12-30 21:51 | 44.88392 | -63.51245 | 449 ft | 14 kts | 37° |
| 2025-12-30 21:51 | 44.88619 | -63.51248 | 448 ft | 15 kts | 351° |
| 2025-12-30 21:52 | 44.88709 | -63.51056 | 448 ft | 15 kts | 78° |
| 2025-12-30 21:52 | 44.88821 | -63.50829 | 447 ft | 15 kts | 36° |
| 2025-12-30 21:53 | 44.89000 | -63.50652 | 447 ft | 16 kts | 45° |
| 2025-12-30 21:53 | 44.88933 | -63.50447 | 448 ft | 10 kts | 126° |
| 2025-12-30 21:54 | 44.88884 | -63.50446 | 449 ft | 7 kts | 216° |
| 2025-12-30 21:54 | 44.87466 | -63.51877 | 1339 ft | 184 kts | 219° |
| 2025-12-30 21:55 | 44.85742 | -63.53729 | 4356 ft | 150 kts | 221° |
| 2025-12-30 21:55 | 44.84276 | -63.55254 | 6863 ft | 113 kts | 225° |
| 2025-12-30 21:56 | 44.83188 | -63.56398 | 8686 ft | 96 kts | 226° |
| 2025-12-30 21:56 | 44.82104 | -63.57538 | 10055 ft | 100 kts | 226° |
| 2025-12-30 21:57 | 44.80808 | -63.58903 | 12475 ft | 122 kts | 223° |
| 2025-12-30 21:57 | 44.80142 | -63.59593 | 13936 ft | 117 kts | 223° |
| 2025-12-30 21:58 | 44.78784 | -63.60657 | 16608 ft | 129 kts | 190° |
| 2025-12-30 21:59 | 44.76940 | -63.54576 | 20460 ft | 265 kts | 69° |
| 2025-12-30 21:59 | 44.77981 | -63.52443 | 21345 ft | 275 kts | 37° |
| 2025-12-30 21:59 | 44.79933 | -63.51084 | 21787 ft | 272 kts | 354° |
| 2025-12-30 22:00 | 44.83303 | -63.50361 | 23761 ft | 256 kts | 350° |
| 2025-12-30 22:00 | 44.86884 | -63.49764 | 25309 ft | 247 kts | 349° |
| 2025-12-30 22:03 | 45.03711 | -63.47006 | 26307 ft | 342 kts | 7° |